createdAt,value
2018-12-22T00:01:43.506Z,0.70
2018-12-22T00:04:09.870Z,1.80
2018-12-22T00:06:36.576Z,0.80
2018-12-22T00:09:04.488Z,0.73
2018-12-22T00:11:31.078Z,0.77
2018-12-22T00:13:57.486Z,0.70
2018-12-22T00:16:23.975Z,0.80
2018-12-22T00:18:50.555Z,0.73
2018-12-22T00:21:17.042Z,1.33
2018-12-22T00:23:43.737Z,0.83
2018-12-22T00:26:10.243Z,0.60
2018-12-22T00:28:37.010Z,0.80
2018-12-22T00:31:03.624Z,0.70
2018-12-22T00:33:30.207Z,0.90
2018-12-22T00:35:56.921Z,0.70
2018-12-22T00:38:23.570Z,0.60
2018-12-22T00:40:50.064Z,0.60
2018-12-22T00:43:16.587Z,0.90
2018-12-22T00:45:43.075Z,2.37
2018-12-22T00:48:09.563Z,0.70
2018-12-22T00:50:36.145Z,0.70
2018-12-22T00:53:02.626Z,0.80
2018-12-22T00:55:29.031Z,0.87
2018-12-22T00:57:55.450Z,0.87
2018-12-22T01:00:22.043Z,0.70
2018-12-22T01:02:48.542Z,0.87
2018-12-22T01:05:15.018Z,2.70
2018-12-22T01:07:41.387Z,0.60
2018-12-22T01:10:07.722Z,0.50
2018-12-22T01:12:34.323Z,1.20
2018-12-22T01:15:00.914Z,0.60
2018-12-22T01:17:27.511Z,0.60
2018-12-22T01:19:53.978Z,0.80
2018-12-22T01:22:20.562Z,0.70
2018-12-22T01:24:47.151Z,0.63
2018-12-22T01:27:13.644Z,0.70
2018-12-22T01:29:40.342Z,1.27
2018-12-22T01:32:06.921Z,1.13
2018-12-22T01:34:33.522Z,0.97
2018-12-22T01:37:00.209Z,1.30
2018-12-22T01:39:26.934Z,0.80
2018-12-22T01:41:53.618Z,1.17
2018-12-22T01:44:20.236Z,0.60
2018-12-22T01:46:46.714Z,0.80
2018-12-22T01:49:13.301Z,0.80
2018-12-22T01:51:39.775Z,0.73
2018-12-22T01:54:06.094Z,0.90
2018-12-22T01:56:32.688Z,0.67
2018-12-22T01:58:59.168Z,0.87
2018-12-22T02:01:25.855Z,0.70
2018-12-22T02:03:52.469Z,0.70
2018-12-22T02:06:18.941Z,1.13
2018-12-22T02:08:45.625Z,0.60
2018-12-22T02:11:12.339Z,0.80
2018-12-22T02:13:39.020Z,0.90
2018-12-22T02:16:05.635Z,0.50
2018-12-22T02:18:32.114Z,0.70
2018-12-22T02:20:58.703Z,1.10
2018-12-22T02:23:25.171Z,1.13
2018-12-22T02:25:51.670Z,1.07
2018-12-22T02:28:18.259Z,1.70
2018-12-22T02:30:44.755Z,0.60
2018-12-22T02:33:11.343Z,0.80
2018-12-22T02:35:37.952Z,0.80
2018-12-22T02:38:04.672Z,0.83
2018-12-22T02:40:31.283Z,0.77
2018-12-22T02:42:57.866Z,1.20
2018-12-22T02:45:24.461Z,1.03
2018-12-22T02:47:51.048Z,1.70
2018-12-22T02:50:17.644Z,0.73
2018-12-22T02:52:44.136Z,2.10
2018-12-22T02:55:10.619Z,2.00
2018-12-22T02:57:36.994Z,1.00
2018-12-22T03:00:05.595Z,0.70
2018-12-22T03:02:32.271Z,0.77
2018-12-22T03:04:59.042Z,2.07
2018-12-22T03:07:25.757Z,0.83
2018-12-22T03:09:52.247Z,0.70
2018-12-22T03:12:18.755Z,0.80
2018-12-22T03:14:45.347Z,0.93
2018-12-22T03:17:11.848Z,1.27
2018-12-22T03:19:38.324Z,0.80
2018-12-22T03:22:04.823Z,1.17
2018-12-22T03:24:31.398Z,0.70
2018-12-22T03:26:57.995Z,0.80
2018-12-22T03:29:24.687Z,0.97
2018-12-22T03:31:51.300Z,1.20
2018-12-22T03:34:17.985Z,0.70
2018-12-22T03:36:44.575Z,1.17
2018-12-22T03:39:10.935Z,1.73
2018-12-22T03:41:37.635Z,2.60
2018-12-22T03:44:04.220Z,1.13
2018-12-22T03:46:30.716Z,1.50
2018-12-22T03:48:57.291Z,0.80
2018-12-22T03:51:23.647Z,1.27
2018-12-22T03:53:53.175Z,0.90
2018-12-22T03:56:19.753Z,1.27
2018-12-22T03:58:46.343Z,1.00
2018-12-22T04:01:12.934Z,1.40
2018-12-22T04:03:39.286Z,1.40
2018-12-22T04:06:05.919Z,2.00
2018-12-22T04:08:32.523Z,1.00
2018-12-22T04:10:59.106Z,2.10
2018-12-22T04:13:25.823Z,2.10
2018-12-22T04:15:52.516Z,1.40
2018-12-22T04:18:19.093Z,1.00
2018-12-22T04:20:45.808Z,1.90
2018-12-22T04:23:12.515Z,0.70
2018-12-22T04:25:39.010Z,0.77
2018-12-22T04:28:05.487Z,2.13
2018-12-22T04:30:31.962Z,1.13
2018-12-22T04:32:58.568Z,1.77
2018-12-22T04:35:25.307Z,1.20
2018-12-22T04:37:51.858Z,2.07
2018-12-22T04:40:18.260Z,2.90
2018-12-22T04:42:44.957Z,1.10
2018-12-22T04:45:11.302Z,1.10
2018-12-22T04:47:39.967Z,1.20
2018-12-22T04:50:06.579Z,1.20
2018-12-22T04:52:33.278Z,1.53
2018-12-22T04:54:59.785Z,1.20
2018-12-22T04:57:26.239Z,1.67
2018-12-22T04:59:52.831Z,1.60
2018-12-22T05:02:19.530Z,1.20
2018-12-22T05:04:46.222Z,1.30
2018-12-22T05:07:12.910Z,1.40
2018-12-22T05:09:39.262Z,1.33
2018-12-22T05:12:05.838Z,1.10
2018-12-22T05:14:32.338Z,2.70
2018-12-22T05:16:59.160Z,1.53
2018-12-22T05:19:25.654Z,1.60
2018-12-22T05:21:52.140Z,1.10
2018-12-22T05:24:18.848Z,0.77
2018-12-22T05:26:45.432Z,1.13
2018-12-22T05:29:12.022Z,0.80
2018-12-22T05:31:38.743Z,1.87
2018-12-22T05:34:05.236Z,1.43
2018-12-22T05:36:31.715Z,2.00
2018-12-22T05:38:58.475Z,1.47
2018-12-22T05:41:25.175Z,0.93
2018-12-22T05:43:51.755Z,1.47
2018-12-22T05:46:18.090Z,1.30
2018-12-22T05:48:44.783Z,2.27
2018-12-22T05:51:11.155Z,2.77
2018-12-22T05:53:37.759Z,0.80
2018-12-22T05:56:04.341Z,1.80
2018-12-22T05:58:31.030Z,2.50
2018-12-22T06:00:57.623Z,2.43
2018-12-22T06:03:23.982Z,1.83
2018-12-22T06:05:50.474Z,1.80
2018-12-22T06:08:17.052Z,1.80
2018-12-22T06:10:43.639Z,1.10
2018-12-22T06:13:10.127Z,1.10
2018-12-22T06:15:36.479Z,3.40
2018-12-22T06:18:02.942Z,1.87
2018-12-22T06:20:29.655Z,1.03
2018-12-22T06:22:56.231Z,1.00
2018-12-22T06:25:22.815Z,0.97
2018-12-22T06:27:49.604Z,0.73
2018-12-22T06:30:16.107Z,2.13
2018-12-22T06:32:42.687Z,1.63
2018-12-22T06:35:09.268Z,5.77
2018-12-22T06:37:35.971Z,0.83
2018-12-22T06:40:03.566Z,0.80
2018-12-22T06:42:30.160Z,0.90
2018-12-22T06:44:56.750Z,0.80
2018-12-22T06:47:23.107Z,1.67
2018-12-22T06:49:49.694Z,0.90
2018-12-22T06:52:16.185Z,2.30
2018-12-22T06:54:42.886Z,0.80
2018-12-22T06:57:09.255Z,0.80
2018-12-22T06:59:35.833Z,1.60
2018-12-22T07:02:02.432Z,1.07
2018-12-22T07:04:29.010Z,0.73
2018-12-22T07:06:55.610Z,3.07
2018-12-22T07:09:22.062Z,0.70
2018-12-22T07:11:48.683Z,1.63
2018-12-22T07:14:15.258Z,0.93
2018-12-22T07:16:41.863Z,1.50
2018-12-22T07:19:08.448Z,1.57
2018-12-22T07:21:35.147Z,0.57
2018-12-22T07:24:01.734Z,0.77
2018-12-22T07:26:28.240Z,0.50
2018-12-22T07:28:54.825Z,1.87
2018-12-22T07:31:21.417Z,1.10
2018-12-22T07:33:47.910Z,1.80
2018-12-22T07:36:14.361Z,0.77
2018-12-22T07:38:40.818Z,2.47
2018-12-22T07:41:07.407Z,0.93
2018-12-22T07:43:33.896Z,1.23
2018-12-22T07:46:00.381Z,1.23
2018-12-22T07:48:26.966Z,3.53
2018-12-22T07:50:53.571Z,3.17
2018-12-22T07:53:20.169Z,1.20
2018-12-22T07:55:46.542Z,2.37
2018-12-22T07:58:13.143Z,3.07
2018-12-22T08:00:39.840Z,1.43
2018-12-22T08:03:06.457Z,1.30
2018-12-22T08:05:38.652Z,2.90
2018-12-22T08:08:01.574Z,2.50
2018-12-22T08:10:28.158Z,1.87
2018-12-22T08:12:54.665Z,1.07
2018-12-22T08:15:21.127Z,1.90
2018-12-22T08:17:47.618Z,1.93
2018-12-22T08:20:13.983Z,2.23
2018-12-22T08:22:40.570Z,1.03
2018-12-22T08:25:07.162Z,1.33
2018-12-22T08:27:33.642Z,0.80
2018-12-22T08:30:00.277Z,0.77
2018-12-22T08:32:26.986Z,1.33
2018-12-22T08:34:53.475Z,1.07
2018-12-22T08:37:19.946Z,1.90
2018-12-22T08:39:48.060Z,1.80
2018-12-22T08:42:14.414Z,1.63
2018-12-22T08:44:42.861Z,2.27
2018-12-22T08:47:09.614Z,2.77
2018-12-22T08:49:36.306Z,0.83
2018-12-22T08:52:02.878Z,1.37
2018-12-22T08:54:29.578Z,2.60
2018-12-22T08:56:56.270Z,1.83
2018-12-22T08:59:22.872Z,0.77
2018-12-22T09:01:49.599Z,0.77
2018-12-22T09:04:16.077Z,0.80
2018-12-22T09:06:42.451Z,0.50
2018-12-22T09:09:08.924Z,0.60
2018-12-22T09:11:35.517Z,2.60
2018-12-22T09:14:02.095Z,0.60
2018-12-22T09:16:28.592Z,1.23
2018-12-22T09:18:54.946Z,2.23
2018-12-22T09:21:21.540Z,0.90
2018-12-22T09:23:48.124Z,0.80
2018-12-22T09:26:14.486Z,1.80
2018-12-22T09:28:40.977Z,1.13
2018-12-22T09:31:07.472Z,2.70
2018-12-22T09:33:33.944Z,1.70
2018-12-22T09:36:00.309Z,0.73
2018-12-22T09:38:26.896Z,0.93
2018-12-22T09:40:53.387Z,3.60
2018-12-22T09:43:19.808Z,1.13
2018-12-22T09:45:46.559Z,2.80
2018-12-22T09:48:13.014Z,1.40
2018-12-22T09:50:39.618Z,2.30
2018-12-22T09:53:06.255Z,3.37
2018-12-22T09:55:32.614Z,3.63
2018-12-22T09:57:59.146Z,1.77
2018-12-22T10:00:25.630Z,3.87
2018-12-22T10:02:52.346Z,3.37
2018-12-22T10:05:18.822Z,4.37
2018-12-22T10:07:45.339Z,3.10
2018-12-22T10:10:12.272Z,2.03
2018-12-22T10:12:38.874Z,1.77
2018-12-22T10:15:06.771Z,1.90
2018-12-22T10:17:33.506Z,2.30
2018-12-22T10:20:00.018Z,2.67
2018-12-22T10:22:26.507Z,2.60
2018-12-22T10:24:52.986Z,5.13
2018-12-22T10:27:19.461Z,1.47
2018-12-22T10:29:45.950Z,4.87
2018-12-22T10:32:12.542Z,0.70
2018-12-22T10:34:39.031Z,5.80
2018-12-22T10:37:05.634Z,1.87
2018-12-22T10:39:32.124Z,4.03
2018-12-22T10:41:58.579Z,4.47
2018-12-22T10:44:25.197Z,4.60
2018-12-22T10:46:51.678Z,3.20
2018-12-22T10:49:18.090Z,2.87
2018-12-22T10:51:44.452Z,6.33
2018-12-22T10:54:10.815Z,7.10
2018-12-22T10:56:37.411Z,4.10
2018-12-22T10:59:03.898Z,5.63
2018-12-22T11:01:30.378Z,5.27
2018-12-22T11:03:56.869Z,3.67
2018-12-22T11:06:23.331Z,2.20
2018-12-22T11:08:49.822Z,4.47
2018-12-22T11:11:16.288Z,5.83
2018-12-22T11:13:42.883Z,3.60
2018-12-22T11:16:09.374Z,4.50
2018-12-22T11:18:35.973Z,3.53
2018-12-22T11:21:02.666Z,3.77
2018-12-22T11:23:29.265Z,2.70
2018-12-22T11:25:55.964Z,2.67
2018-12-22T11:28:22.564Z,2.73
2018-12-22T11:30:49.258Z,3.30
2018-12-22T11:33:15.806Z,5.63
2018-12-22T11:35:42.287Z,3.03
2018-12-22T11:38:08.880Z,1.83
2018-12-22T11:40:35.366Z,2.23
2018-12-22T11:43:01.944Z,2.73
2018-12-22T11:45:28.644Z,2.00
2018-12-22T11:47:55.530Z,4.40
2018-12-22T11:50:23.913Z,2.70
2018-12-22T11:52:50.512Z,4.10
2018-12-22T11:55:17.057Z,3.73
2018-12-22T11:57:43.746Z,4.60
2018-12-22T12:00:13.087Z,3.73
2018-12-22T12:02:39.559Z,2.87
2018-12-22T12:05:07.571Z,4.47
2018-12-22T12:07:34.047Z,2.70
2018-12-22T12:10:00.561Z,3.63
2018-12-22T12:12:27.150Z,2.30
2018-12-22T12:14:53.738Z,5.20
2018-12-22T12:17:22.239Z,5.00
2018-12-22T12:19:48.840Z,2.90
2018-12-22T12:22:15.350Z,4.03
2018-12-22T12:24:41.844Z,5.07
2018-12-22T12:27:08.326Z,6.13
2018-12-22T12:29:34.902Z,4.93
2018-12-22T12:32:01.654Z,3.70
2018-12-22T12:34:28.572Z,5.53
2018-12-22T12:36:55.385Z,3.90
2018-12-22T12:39:22.189Z,2.33
2018-12-22T12:41:48.813Z,3.77
2018-12-22T12:44:15.400Z,4.80
2018-12-22T12:46:41.996Z,3.40
2018-12-22T12:49:08.458Z,4.87
2018-12-22T12:51:35.052Z,2.33
2018-12-22T12:54:01.630Z,5.07
2018-12-22T12:56:28.256Z,3.67
2018-12-22T12:58:54.738Z,3.63
2018-12-22T13:01:21.233Z,5.77
2018-12-22T13:03:47.718Z,2.30
2018-12-22T13:06:14.239Z,4.67
2018-12-22T13:08:40.914Z,3.13
2018-12-22T13:11:07.561Z,6.90
2018-12-22T13:13:36.871Z,3.77
2018-12-22T13:16:03.363Z,4.30
2018-12-22T13:18:29.963Z,3.33
2018-12-22T13:20:56.684Z,3.83
2018-12-22T13:23:23.241Z,4.27
2018-12-22T13:25:49.596Z,2.50
2018-12-22T13:28:15.995Z,2.37
2018-12-22T13:30:42.501Z,3.37
2018-12-22T13:33:09.264Z,4.95
2018-12-22T13:35:35.794Z,2.98
2018-12-22T13:38:02.266Z,3.77
2018-12-22T13:40:28.734Z,5.27
2018-12-22T13:42:55.222Z,3.30
2018-12-22T13:45:21.707Z,4.43
2018-12-22T13:47:48.379Z,3.77
2018-12-22T13:50:15.006Z,4.13
2018-12-22T13:52:41.596Z,5.30
2018-12-22T13:55:08.711Z,4.03
2018-12-22T13:57:36.722Z,4.13
2018-12-22T14:00:05.217Z,4.73
2018-12-22T14:02:33.445Z,2.67
2018-12-22T14:05:00.030Z,9.27
2018-12-22T14:07:26.738Z,3.23
2018-12-22T14:09:53.318Z,3.97
2018-12-22T14:12:19.925Z,3.77
2018-12-22T14:14:46.439Z,4.83
2018-12-22T14:17:13.035Z,2.77
2018-12-22T14:19:40.614Z,5.07
2018-12-22T14:22:07.138Z,4.27
2018-12-22T14:24:33.883Z,2.17
2018-12-22T14:27:00.336Z,4.30
2018-12-22T14:29:26.815Z,16.97
2018-12-22T14:31:53.398Z,3.87
2018-12-22T14:34:21.302Z,5.33
2018-12-22T14:36:47.887Z,4.73
2018-12-22T14:39:14.346Z,6.90
2018-12-22T14:41:40.938Z,4.97
2018-12-22T14:44:07.298Z,6.97
2018-12-22T14:46:33.987Z,10.93
2018-12-22T14:49:00.650Z,7.77
2018-12-22T14:51:27.113Z,3.23
2018-12-22T14:53:53.619Z,5.17
2018-12-22T14:56:21.939Z,4.77
2018-12-22T14:58:48.526Z,3.53
2018-12-22T15:01:15.227Z,9.27
2018-12-22T15:03:41.818Z,4.37
2018-12-22T15:06:08.538Z,5.87
2018-12-22T15:08:35.147Z,5.90
2018-12-22T15:11:03.587Z,5.40
2018-12-22T15:13:30.254Z,3.07
2018-12-22T15:15:56.730Z,3.13
2018-12-22T15:18:23.224Z,6.27
2018-12-22T15:20:49.806Z,6.20
2018-12-22T15:23:16.307Z,5.37
2018-12-22T15:25:42.799Z,4.70
2018-12-22T15:28:09.277Z,2.80
2018-12-22T15:30:35.881Z,5.90
2018-12-22T15:33:02.465Z,4.27
2018-12-22T15:35:29.086Z,3.97
2018-12-22T15:37:55.780Z,4.67
2018-12-22T15:40:22.250Z,4.90
2018-12-22T15:42:48.838Z,3.37
2018-12-22T15:45:15.705Z,2.07
2018-12-22T15:47:42.902Z,6.37
2018-12-22T15:50:11.398Z,6.67
2018-12-22T15:52:37.866Z,6.93
2018-12-22T15:55:05.703Z,2.13
2018-12-22T15:57:32.154Z,8.17
2018-12-22T15:59:58.859Z,4.57
2018-12-22T16:02:25.555Z,9.10
2018-12-22T16:04:52.148Z,6.17
2018-12-22T16:07:18.743Z,5.43
2018-12-22T16:09:45.103Z,8.27
2018-12-22T16:12:11.774Z,3.33
2018-12-22T16:14:38.521Z,5.67
2018-12-22T16:17:05.198Z,3.67
2018-12-22T16:19:31.775Z,4.73
2018-12-22T16:21:58.242Z,4.37
2018-12-22T16:24:24.835Z,6.90
2018-12-22T16:26:51.576Z,2.83
2018-12-22T16:29:18.479Z,5.07
2018-12-22T16:31:45.088Z,3.70
2018-12-22T16:34:11.558Z,4.77
2018-12-22T16:36:38.144Z,5.37
2018-12-22T16:39:05.239Z,2.57
2018-12-22T16:41:31.849Z,3.20
2018-12-22T16:43:58.542Z,3.70
2018-12-22T16:46:25.034Z,4.67
2018-12-22T16:48:51.727Z,5.10
2018-12-22T16:51:18.418Z,5.00
2018-12-22T16:53:45.118Z,5.00
2018-12-22T16:56:11.742Z,4.50
2018-12-22T16:58:38.330Z,5.67
2018-12-22T17:01:06.715Z,6.20
2018-12-22T17:03:33.191Z,3.47
2018-12-22T17:06:00.902Z,5.10
2018-12-22T17:08:27.366Z,6.00
2018-12-22T17:10:55.189Z,2.93
2018-12-22T17:13:21.892Z,3.90
2018-12-22T17:15:48.498Z,4.67
2018-12-22T17:18:15.091Z,5.97
2018-12-22T17:20:41.816Z,5.13
2018-12-22T17:23:10.127Z,6.13
2018-12-22T17:25:37.423Z,5.00
2018-12-22T17:28:03.878Z,6.53
2018-12-22T17:30:30.467Z,3.20
2018-12-22T17:32:57.059Z,4.57
2018-12-22T17:35:23.642Z,3.80
2018-12-22T17:37:50.426Z,6.13
2018-12-22T17:40:16.794Z,4.87
2018-12-22T17:42:43.392Z,5.93
2018-12-22T17:45:10.203Z,7.30
2018-12-22T17:47:36.700Z,3.30
2018-12-22T17:50:04.555Z,2.27
2018-12-22T17:52:31.064Z,5.87
2018-12-22T17:54:57.540Z,3.43
2018-12-22T17:57:24.198Z,3.07
2018-12-22T17:59:51.214Z,4.20
2018-12-22T18:02:17.826Z,2.80
2018-12-22T18:04:44.427Z,2.70
2018-12-22T18:07:11.130Z,2.50
2018-12-22T18:09:37.751Z,1.83
2018-12-22T18:12:04.109Z,3.93
2018-12-22T18:14:30.595Z,2.47
2018-12-22T18:16:57.294Z,3.00
2018-12-22T18:19:23.782Z,3.57
2018-12-22T18:21:50.489Z,3.27
2018-12-22T18:24:17.088Z,3.60
2018-12-22T18:26:43.538Z,4.47
2018-12-22T18:29:09.922Z,4.67
2018-12-22T18:31:36.404Z,6.57
2018-12-22T18:34:02.932Z,3.83
2018-12-22T18:36:29.522Z,5.70
2018-12-22T18:38:56.162Z,7.13
2018-12-22T18:41:22.790Z,3.00
2018-12-22T18:43:52.406Z,6.57
2018-12-22T18:46:18.763Z,3.10
2018-12-22T18:48:45.340Z,3.47
2018-12-22T18:51:11.939Z,4.17
2018-12-22T18:53:38.527Z,4.50
2018-12-22T18:56:05.067Z,6.87
2018-12-22T18:58:31.446Z,5.43
2018-12-22T19:00:57.939Z,3.67
2018-12-22T19:03:24.412Z,4.00
2018-12-22T19:05:50.904Z,8.43
2018-12-22T19:08:17.907Z,7.47
2018-12-22T19:10:44.374Z,4.47
2018-12-22T19:13:11.092Z,7.67
2018-12-22T19:15:37.799Z,2.23
2018-12-22T19:18:04.384Z,8.27
2018-12-22T19:20:32.771Z,7.30
2018-12-22T19:22:59.167Z,4.63
2018-12-22T19:25:26.167Z,3.57
2018-12-22T19:27:52.635Z,5.07
2018-12-22T19:30:19.127Z,5.30
2018-12-22T19:32:45.912Z,5.83
2018-12-22T19:35:12.391Z,6.30
2018-12-22T19:37:38.897Z,6.57
2018-12-22T19:40:05.601Z,7.20
2018-12-22T19:42:32.339Z,3.83
2018-12-22T19:44:59.042Z,8.33
2018-12-22T19:47:25.409Z,7.97
2018-12-22T19:49:51.993Z,6.50
2018-12-22T19:52:19.221Z,6.30
2018-12-22T19:54:45.831Z,5.37
2018-12-22T19:57:12.539Z,3.33
2018-12-22T19:59:39.109Z,5.20
2018-12-22T20:02:05.711Z,3.93
2018-12-22T20:04:32.283Z,3.27
2018-12-22T20:06:58.875Z,7.07
2018-12-22T20:09:25.362Z,5.40
2018-12-22T20:11:51.942Z,7.00
2018-12-22T20:14:18.641Z,8.00
2018-12-22T20:16:45.142Z,4.57
2018-12-22T20:19:11.723Z,5.07
2018-12-22T20:21:38.362Z,5.43
2018-12-22T20:24:04.724Z,4.27
2018-12-22T20:26:31.304Z,7.70
2018-12-22T20:28:57.666Z,6.90
2018-12-22T20:31:24.151Z,4.33
2018-12-22T20:33:50.743Z,2.87
2018-12-22T20:36:17.368Z,10.17
2018-12-22T20:38:43.855Z,4.43
2018-12-22T20:41:10.891Z,6.47
2018-12-22T20:43:37.960Z,8.33
2018-12-22T20:46:04.767Z,3.47
2018-12-22T20:48:31.418Z,6.70
2018-12-22T20:50:58.002Z,4.33
2018-12-22T20:53:24.502Z,3.63
2018-12-22T20:55:51.074Z,4.90
2018-12-22T20:58:17.707Z,4.53
2018-12-22T21:00:44.070Z,7.13
2018-12-22T21:03:10.689Z,5.20
2018-12-22T21:05:39.190Z,8.03
2018-12-22T21:08:05.688Z,4.83
2018-12-22T21:10:32.290Z,5.90
2018-12-22T21:12:59.011Z,6.60
2018-12-22T21:15:25.622Z,6.60
2018-12-22T21:17:52.326Z,4.37
2018-12-22T21:20:19.034Z,5.60
2018-12-22T21:22:45.542Z,6.90
2018-12-22T21:25:11.902Z,5.73
2018-12-22T21:27:38.503Z,4.07
2018-12-22T21:30:05.377Z,2.93
2018-12-22T21:32:31.966Z,6.87
2018-12-22T21:34:58.465Z,7.37
2018-12-22T21:37:24.832Z,3.67
2018-12-22T21:39:51.552Z,7.63
2018-12-22T21:42:18.150Z,6.07
2018-12-22T21:44:44.867Z,4.47
2018-12-22T21:47:11.459Z,5.67
2018-12-22T21:49:37.840Z,6.03
2018-12-22T21:52:04.371Z,7.80
2018-12-22T21:54:30.994Z,6.40
2018-12-22T21:56:57.586Z,7.83
2018-12-22T21:59:24.212Z,5.33
2018-12-22T22:01:50.591Z,8.97
2018-12-22T22:04:17.194Z,4.50
2018-12-22T22:06:43.707Z,6.47
2018-12-22T22:09:10.303Z,12.50
2018-12-22T22:11:36.789Z,9.77
2018-12-22T22:14:03.274Z,5.83
2018-12-22T22:16:29.879Z,6.13
2018-12-22T22:18:56.391Z,5.97
2018-12-22T22:21:22.895Z,8.93
2018-12-22T22:23:49.587Z,12.83
2018-12-22T22:26:16.046Z,7.23
2018-12-22T22:28:42.667Z,10.03
2018-12-22T22:31:09.163Z,9.90
2018-12-22T22:33:35.773Z,6.73
2018-12-22T22:36:02.626Z,6.13
2018-12-22T22:38:29.433Z,7.93
2018-12-22T22:40:56.069Z,6.90
2018-12-22T22:43:22.586Z,9.60
2018-12-22T22:45:49.174Z,6.87
2018-12-22T22:48:15.739Z,8.97
2018-12-22T22:50:42.343Z,6.40
2018-12-22T22:53:08.819Z,7.30
2018-12-22T22:55:35.434Z,15.07
2018-12-22T22:58:02.031Z,9.23
2018-12-22T23:00:30.551Z,7.47
2018-12-22T23:02:57.038Z,6.57
2018-12-22T23:05:23.634Z,12.83
2018-12-22T23:07:50.135Z,6.77
2018-12-22T23:10:16.483Z,8.50
2018-12-22T23:12:43.075Z,6.23
2018-12-22T23:15:09.655Z,10.10
2018-12-22T23:17:36.238Z,8.20
2018-12-22T23:20:03.327Z,8.07
2018-12-22T23:22:29.682Z,5.57
2018-12-22T23:24:56.307Z,6.13
2018-12-22T23:27:22.899Z,5.90
2018-12-22T23:29:49.390Z,5.97
2018-12-22T23:32:15.791Z,8.43
2018-12-22T23:34:42.273Z,7.67
2018-12-22T23:37:08.757Z,7.43
2018-12-22T23:39:35.354Z,8.90
2018-12-22T23:42:01.946Z,11.50
2018-12-22T23:44:28.675Z,8.47
2018-12-22T23:46:55.031Z,10.73
2018-12-22T23:49:21.738Z,3.40
2018-12-22T23:51:48.442Z,6.97
2018-12-22T23:54:15.142Z,11.87
2018-12-22T23:56:41.722Z,6.33
2018-12-22T23:59:08.310Z,5.37
